sensor_id;sensor_type;location;lat;lon;timestamp;P1;durP1;ratioP1;P2;durP2;ratioP2
52668;SDS011;59898;52.786;6.892;2023-10-13T00:02:32;60.17;;;38.25;;
52668;SDS011;59898;52.786;6.892;2023-10-13T00:05:56;54.03;;;34.00;;
52668;SDS011;59898;52.786;6.892;2023-10-13T00:09:20;53.53;;;35.90;;
52668;SDS011;59898;52.786;6.892;2023-10-13T00:12:45;58.00;;;33.35;;
52668;SDS011;59898;52.786;6.892;2023-10-13T00:16:13;48.03;;;33.83;;
52668;SDS011;59898;52.786;6.892;2023-10-13T00:19:38;53.83;;;36.28;;
52668;SDS011;59898;52.786;6.892;2023-10-13T00:23:05;55.72;;;35.10;;
52668;SDS011;59898;52.786;6.892;2023-10-13T00:26:26;54.42;;;33.90;;
52668;SDS011;59898;52.786;6.892;2023-10-13T00:29:48;46.72;;;30.38;;
52668;SDS011;59898;52.786;6.892;2023-10-13T00:33:10;52.27;;;35.90;;
52668;SDS011;59898;52.786;6.892;2023-10-13T00:36:31;46.47;;;31.55;;
52668;SDS011;59898;52.786;6.892;2023-10-13T00:39:54;52.13;;;34.55;;
52668;SDS011;59898;52.786;6.892;2023-10-13T00:43:16;53.50;;;36.10;;
52668;SDS011;59898;52.786;6.892;2023-10-13T00:46:41;55.35;;;36.13;;
52668;SDS011;59898;52.786;6.892;2023-10-13T00:50:05;55.92;;;34.75;;
52668;SDS011;59898;52.786;6.892;2023-10-13T00:53:26;52.60;;;32.95;;
52668;SDS011;59898;52.786;6.892;2023-10-13T00:56:48;51.28;;;32.67;;
52668;SDS011;59898;52.786;6.892;2023-10-13T01:00:17;59.03;;;35.15;;
52668;SDS011;59898;52.786;6.892;2023-10-13T01:03:46;48.72;;;34.75;;
52668;SDS011;59898;52.786;6.892;2023-10-13T01:07:15;58.95;;;34.03;;
52668;SDS011;59898;52.786;6.892;2023-10-13T01:10:36;48.85;;;35.33;;
52668;SDS011;59898;52.786;6.892;2023-10-13T01:13:57;52.58;;;33.03;;
52668;SDS011;59898;52.786;6.892;2023-10-13T01:17:24;46.90;;;33.03;;
52668;SDS011;59898;52.786;6.892;2023-10-13T01:20:51;47.35;;;30.80;;
52668;SDS011;59898;52.786;6.892;2023-10-13T01:24:12;49.22;;;32.20;;
52668;SDS011;59898;52.786;6.892;2023-10-13T01:27:37;47.13;;;31.58;;
52668;SDS011;59898;52.786;6.892;2023-10-13T01:31:01;50.25;;;32.22;;
52668;SDS011;59898;52.786;6.892;2023-10-13T01:34:21;53.95;;;33.22;;
52668;SDS011;59898;52.786;6.892;2023-10-13T01:37:42;44.85;;;30.35;;
52668;SDS011;59898;52.786;6.892;2023-10-13T01:41:04;43.90;;;31.13;;
52668;SDS011;59898;52.786;6.892;2023-10-13T01:47:48;46.08;;;30.25;;
52668;SDS011;59898;52.786;6.892;2023-10-13T01:51:10;45.38;;;28.50;;
52668;SDS011;59898;52.786;6.892;2023-10-13T01:54:31;46.58;;;32.97;;
52668;SDS011;59898;52.786;6.892;2023-10-13T01:57:52;46.15;;;30.13;;
52668;SDS011;59898;52.786;6.892;2023-10-13T02:01:14;39.63;;;27.40;;
52668;SDS011;59898;52.786;6.892;2023-10-13T02:04:46;43.75;;;28.85;;
52668;SDS011;59898;52.786;6.892;2023-10-13T02:08:17;42.92;;;27.50;;
52668;SDS011;59898;52.786;6.892;2023-10-13T02:11:44;39.92;;;26.52;;
52668;SDS011;59898;52.786;6.892;2023-10-13T02:15:06;36.58;;;24.85;;
52668;SDS011;59898;52.786;6.892;2023-10-13T02:18:26;39.10;;;23.40;;
52668;SDS011;59898;52.786;6.892;2023-10-13T02:21:47;36.60;;;24.92;;
52668;SDS011;59898;52.786;6.892;2023-10-13T02:25:18;35.05;;;23.98;;
52668;SDS011;59898;52.786;6.892;2023-10-13T02:29:15;32.15;;;24.30;;
52668;SDS011;59898;52.786;6.892;2023-10-13T02:32:38;36.40;;;24.40;;
52668;SDS011;59898;52.786;6.892;2023-10-13T02:36:03;39.70;;;25.77;;
52668;SDS011;59898;52.786;6.892;2023-10-13T02:39:26;34.85;;;22.17;;
52668;SDS011;59898;52.786;6.892;2023-10-13T02:42:47;34.75;;;24.17;;
52668;SDS011;59898;52.786;6.892;2023-10-13T02:46:08;32.20;;;22.83;;
52668;SDS011;59898;52.786;6.892;2023-10-13T02:49:29;32.38;;;24.27;;
52668;SDS011;59898;52.786;6.892;2023-10-13T02:52:54;35.08;;;24.33;;
52668;SDS011;59898;52.786;6.892;2023-10-13T02:56:14;35.45;;;22.85;;
52668;SDS011;59898;52.786;6.892;2023-10-13T02:59:41;34.80;;;23.63;;
52668;SDS011;59898;52.786;6.892;2023-10-13T03:03:08;35.08;;;24.13;;
52668;SDS011;59898;52.786;6.892;2023-10-13T03:06:28;32.33;;;21.70;;
52668;SDS011;59898;52.786;6.892;2023-10-13T03:09:52;29.92;;;21.88;;
52668;SDS011;59898;52.786;6.892;2023-10-13T03:13:15;35.15;;;22.70;;
52668;SDS011;59898;52.786;6.892;2023-10-13T03:16:36;37.67;;;22.63;;
52668;SDS011;59898;52.786;6.892;2023-10-13T03:19:56;39.38;;;23.58;;
52668;SDS011;59898;52.786;6.892;2023-10-13T03:23:18;32.60;;;23.48;;
52668;SDS011;59898;52.786;6.892;2023-10-13T03:26:42;31.55;;;20.90;;
52668;SDS011;59898;52.786;6.892;2023-10-13T03:30:11;41.03;;;25.60;;
52668;SDS011;59898;52.786;6.892;2023-10-13T03:33:35;37.40;;;25.23;;
52668;SDS011;59898;52.786;6.892;2023-10-13T03:36:58;43.35;;;27.00;;
52668;SDS011;59898;52.786;6.892;2023-10-13T03:40:19;39.53;;;24.75;;
52668;SDS011;59898;52.786;6.892;2023-10-13T03:43:40;38.17;;;25.88;;
52668;SDS011;59898;52.786;6.892;2023-10-13T03:47:12;34.95;;;25.17;;
52668;SDS011;59898;52.786;6.892;2023-10-13T03:50:46;36.65;;;24.40;;
52668;SDS011;59898;52.786;6.892;2023-10-13T03:54:08;36.83;;;25.27;;
52668;SDS011;59898;52.786;6.892;2023-10-13T03:57:29;34.58;;;26.67;;
52668;SDS011;59898;52.786;6.892;2023-10-13T04:00:52;38.45;;;26.98;;
52668;SDS011;59898;52.786;6.892;2023-10-13T04:04:13;35.22;;;25.42;;
52668;SDS011;59898;52.786;6.892;2023-10-13T04:10:59;36.42;;;23.60;;
52668;SDS011;59898;52.786;6.892;2023-10-13T04:14:40;36.30;;;24.77;;
52668;SDS011;59898;52.786;6.892;2023-10-13T04:18:20;33.63;;;22.48;;
52668;SDS011;59898;52.786;6.892;2023-10-13T04:21:54;32.92;;;22.42;;
52668;SDS011;59898;52.786;6.892;2023-10-13T04:25:34;36.60;;;23.27;;
52668;SDS011;59898;52.786;6.892;2023-10-13T04:29:11;34.83;;;23.63;;
52668;SDS011;59898;52.786;6.892;2023-10-13T04:32:47;29.70;;;20.27;;
52668;SDS011;59898;52.786;6.892;2023-10-13T04:36:26;32.30;;;21.20;;
52668;SDS011;59898;52.786;6.892;2023-10-13T04:39:46;30.75;;;20.95;;
52668;SDS011;59898;52.786;6.892;2023-10-13T04:43:16;33.78;;;21.38;;
52668;SDS011;59898;52.786;6.892;2023-10-13T04:46:53;31.80;;;21.10;;
52668;SDS011;59898;52.786;6.892;2023-10-13T04:50:27;31.63;;;20.30;;
52668;SDS011;59898;52.786;6.892;2023-10-13T04:54:01;30.17;;;21.27;;
52668;SDS011;59898;52.786;6.892;2023-10-13T04:57:32;29.42;;;20.27;;
52668;SDS011;59898;52.786;6.892;2023-10-13T05:00:54;32.72;;;20.48;;
52668;SDS011;59898;52.786;6.892;2023-10-13T05:04:37;25.67;;;18.13;;
52668;SDS011;59898;52.786;6.892;2023-10-13T05:08:19;27.63;;;20.13;;
52668;SDS011;59898;52.786;6.892;2023-10-13T05:11:59;32.28;;;20.50;;
52668;SDS011;59898;52.786;6.892;2023-10-13T05:15:46;26.10;;;19.17;;
52668;SDS011;59898;52.786;6.892;2023-10-13T05:19:26;27.58;;;19.70;;
52668;SDS011;59898;52.786;6.892;2023-10-13T05:23:05;23.75;;;18.90;;
52668;SDS011;59898;52.786;6.892;2023-10-13T05:26:44;28.38;;;21.38;;
52668;SDS011;59898;52.786;6.892;2023-10-13T05:30:23;24.80;;;19.02;;
52668;SDS011;59898;52.786;6.892;2023-10-13T05:34:03;24.52;;;18.50;;
52668;SDS011;59898;52.786;6.892;2023-10-13T05:37:42;26.73;;;18.30;;
52668;SDS011;59898;52.786;6.892;2023-10-13T05:41:21;25.75;;;17.63;;
52668;SDS011;59898;52.786;6.892;2023-10-13T05:45:01;21.40;;;17.08;;
52668;SDS011;59898;52.786;6.892;2023-10-13T05:48:30;23.48;;;17.05;;
52668;SDS011;59898;52.786;6.892;2023-10-13T05:52:10;19.73;;;15.77;;
52668;SDS011;59898;52.786;6.892;2023-10-13T05:55:39;25.63;;;15.75;;
52668;SDS011;59898;52.786;6.892;2023-10-13T05:59:18;21.90;;;14.55;;
52668;SDS011;59898;52.786;6.892;2023-10-13T06:02:57;17.88;;;14.00;;
52668;SDS011;59898;52.786;6.892;2023-10-13T06:06:36;17.95;;;13.95;;
52668;SDS011;59898;52.786;6.892;2023-10-13T06:10:16;18.38;;;14.05;;
52668;SDS011;59898;52.786;6.892;2023-10-13T06:13:55;16.92;;;13.10;;
52668;SDS011;59898;52.786;6.892;2023-10-13T06:17:34;16.70;;;12.27;;
52668;SDS011;59898;52.786;6.892;2023-10-13T06:21:14;17.48;;;11.63;;
52668;SDS011;59898;52.786;6.892;2023-10-13T06:24:53;15.65;;;11.90;;
52668;SDS011;59898;52.786;6.892;2023-10-13T06:28:32;11.25;;;9.18;;
52668;SDS011;59898;52.786;6.892;2023-10-13T06:32:02;14.43;;;11.73;;
52668;SDS011;59898;52.786;6.892;2023-10-13T06:35:30;13.45;;;10.02;;
52668;SDS011;59898;52.786;6.892;2023-10-13T06:38:51;15.45;;;10.07;;
52668;SDS011;59898;52.786;6.892;2023-10-13T06:42:38;13.38;;;9.32;;
52668;SDS011;59898;52.786;6.892;2023-10-13T06:46:02;12.68;;;9.27;;
52668;SDS011;59898;52.786;6.892;2023-10-13T06:49:23;15.07;;;10.20;;
52668;SDS011;59898;52.786;6.892;2023-10-13T06:52:44;19.77;;;10.90;;
52668;SDS011;59898;52.786;6.892;2023-10-13T06:56:06;15.82;;;11.23;;
52668;SDS011;59898;52.786;6.892;2023-10-13T06:59:32;12.23;;;9.95;;
52668;SDS011;59898;52.786;6.892;2023-10-13T07:02:55;16.52;;;10.70;;
52668;SDS011;59898;52.786;6.892;2023-10-13T07:06:25;14.73;;;9.65;;
52668;SDS011;59898;52.786;6.892;2023-10-13T07:09:46;13.38;;;8.35;;
52668;SDS011;59898;52.786;6.892;2023-10-13T07:13:15;10.85;;;6.75;;
52668;SDS011;59898;52.786;6.892;2023-10-13T07:16:42;10.77;;;6.95;;
52668;SDS011;59898;52.786;6.892;2023-10-13T07:20:06;13.38;;;7.75;;
52668;SDS011;59898;52.786;6.892;2023-10-13T07:23:44;10.07;;;6.90;;
52668;SDS011;59898;52.786;6.892;2023-10-13T07:27:20;9.68;;;6.85;;
52668;SDS011;59898;52.786;6.892;2023-10-13T07:30:44;11.57;;;6.93;;
52668;SDS011;59898;52.786;6.892;2023-10-13T07:34:09;10.77;;;7.28;;
52668;SDS011;59898;52.786;6.892;2023-10-13T07:37:32;13.07;;;8.10;;
52668;SDS011;59898;52.786;6.892;2023-10-13T07:40:53;11.35;;;6.63;;
52668;SDS011;59898;52.786;6.892;2023-10-13T07:44:14;10.52;;;6.80;;
52668;SDS011;59898;52.786;6.892;2023-10-13T07:47:34;11.13;;;7.15;;
52668;SDS011;59898;52.786;6.892;2023-10-13T07:51:28;9.48;;;6.70;;
52668;SDS011;59898;52.786;6.892;2023-10-13T07:54:45;13.05;;;7.63;;
52668;SDS011;59898;52.786;6.892;2023-10-13T07:58:09;12.02;;;7.43;;
52668;SDS011;59898;52.786;6.892;2023-10-13T08:01:30;14.60;;;7.22;;
52668;SDS011;59898;52.786;6.892;2023-10-13T08:04:50;22.73;;;8.15;;
52668;SDS011;59898;52.786;6.892;2023-10-13T08:08:11;12.15;;;7.57;;
52668;SDS011;59898;52.786;6.892;2023-10-13T08:11:37;12.15;;;8.30;;
52668;SDS011;59898;52.786;6.892;2023-10-13T08:14:58;14.80;;;8.57;;
52668;SDS011;59898;52.786;6.892;2023-10-13T08:18:32;14.45;;;7.85;;
52668;SDS011;59898;52.786;6.892;2023-10-13T08:21:54;16.63;;;8.27;;
52668;SDS011;59898;52.786;6.892;2023-10-13T08:25:34;21.17;;;9.38;;
52668;SDS011;59898;52.786;6.892;2023-10-13T08:29:13;16.17;;;10.18;;
52668;SDS011;59898;52.786;6.892;2023-10-13T08:32:43;13.90;;;8.82;;
52668;SDS011;59898;52.786;6.892;2023-10-13T08:36:14;22.50;;;8.98;;
52668;SDS011;59898;52.786;6.892;2023-10-13T08:39:47;22.52;;;8.50;;
52668;SDS011;59898;52.786;6.892;2023-10-13T08:43:18;15.43;;;8.55;;
52668;SDS011;59898;52.786;6.892;2023-10-13T08:46:38;14.10;;;8.73;;
52668;SDS011;59898;52.786;6.892;2023-10-13T08:50:23;16.02;;;8.93;;
52668;SDS011;59898;52.786;6.892;2023-10-13T08:54:03;14.23;;;8.43;;
52668;SDS011;59898;52.786;6.892;2023-10-13T08:57:38;12.38;;;8.30;;
52668;SDS011;59898;52.786;6.892;2023-10-13T09:01:00;14.57;;;8.40;;
52668;SDS011;59898;52.786;6.892;2023-10-13T09:04:33;11.50;;;8.82;;
52668;SDS011;59898;52.786;6.892;2023-10-13T09:07:55;14.57;;;9.63;;
52668;SDS011;59898;52.786;6.892;2023-10-13T09:11:16;16.80;;;9.02;;
52668;SDS011;59898;52.786;6.892;2023-10-13T09:14:53;9.90;;;7.40;;
52668;SDS011;59898;52.786;6.892;2023-10-13T09:18:24;15.70;;;7.70;;
52668;SDS011;59898;52.786;6.892;2023-10-13T09:22:06;11.82;;;7.57;;
52668;SDS011;59898;52.786;6.892;2023-10-13T09:25:30;10.95;;;7.00;;
52668;SDS011;59898;52.786;6.892;2023-10-13T09:28:57;13.10;;;7.78;;
52668;SDS011;59898;52.786;6.892;2023-10-13T09:32:18;14.52;;;7.20;;
52668;SDS011;59898;52.786;6.892;2023-10-13T09:35:39;15.00;;;8.38;;
52668;SDS011;59898;52.786;6.892;2023-10-13T09:39:00;9.38;;;7.53;;
52668;SDS011;59898;52.786;6.892;2023-10-13T09:42:47;14.73;;;8.07;;
52668;SDS011;59898;52.786;6.892;2023-10-13T09:46:08;14.45;;;7.38;;
52668;SDS011;59898;52.786;6.892;2023-10-13T09:49:43;13.30;;;7.45;;
52668;SDS011;59898;52.786;6.892;2023-10-13T09:53:11;14.90;;;6.88;;
52668;SDS011;59898;52.786;6.892;2023-10-13T09:56:35;15.35;;;8.27;;
52668;SDS011;59898;52.786;6.892;2023-10-13T10:00:12;11.65;;;7.18;;
52668;SDS011;59898;52.786;6.892;2023-10-13T10:03:55;10.57;;;6.32;;
52668;SDS011;59898;52.786;6.892;2023-10-13T10:07:33;10.52;;;7.25;;
52668;SDS011;59898;52.786;6.892;2023-10-13T10:11:00;14.35;;;7.00;;
52668;SDS011;59898;52.786;6.892;2023-10-13T10:18:21;11.95;;;6.15;;
52668;SDS011;59898;52.786;6.892;2023-10-13T10:21:45;14.45;;;7.68;;
52668;SDS011;59898;52.786;6.892;2023-10-13T10:28:45;15.48;;;6.82;;
52668;SDS011;59898;52.786;6.892;2023-10-13T10:32:13;14.45;;;7.05;;
52668;SDS011;59898;52.786;6.892;2023-10-13T10:35:34;16.05;;;6.68;;
52668;SDS011;59898;52.786;6.892;2023-10-13T10:38:56;13.00;;;5.97;;
52668;SDS011;59898;52.786;6.892;2023-10-13T10:42:22;14.40;;;8.43;;
52668;SDS011;59898;52.786;6.892;2023-10-13T10:45:47;17.60;;;8.32;;
52668;SDS011;59898;52.786;6.892;2023-10-13T10:49:10;14.10;;;7.38;;
52668;SDS011;59898;52.786;6.892;2023-10-13T10:52:31;15.43;;;6.43;;
52668;SDS011;59898;52.786;6.892;2023-10-13T10:56:03;14.27;;;7.55;;
52668;SDS011;59898;52.786;6.892;2023-10-13T10:59:25;16.17;;;7.03;;
52668;SDS011;59898;52.786;6.892;2023-10-13T11:02:58;12.77;;;5.85;;
52668;SDS011;59898;52.786;6.892;2023-10-13T11:06:18;17.10;;;7.47;;
52668;SDS011;59898;52.786;6.892;2023-10-13T11:09:40;15.05;;;7.78;;
52668;SDS011;59898;52.786;6.892;2023-10-13T11:13:05;11.98;;;7.47;;
52668;SDS011;59898;52.786;6.892;2023-10-13T11:16:33;12.57;;;7.40;;
52668;SDS011;59898;52.786;6.892;2023-10-13T11:19:54;12.88;;;6.43;;
52668;SDS011;59898;52.786;6.892;2023-10-13T11:23:15;15.43;;;6.55;;
52668;SDS011;59898;52.786;6.892;2023-10-13T11:26:36;20.52;;;7.20;;
52668;SDS011;59898;52.786;6.892;2023-10-13T11:30:12;10.80;;;6.40;;
52668;SDS011;59898;52.786;6.892;2023-10-13T11:33:34;15.52;;;7.35;;
52668;SDS011;59898;52.786;6.892;2023-10-13T11:36:56;13.60;;;7.13;;
52668;SDS011;59898;52.786;6.892;2023-10-13T11:40:18;14.93;;;7.28;;
52668;SDS011;59898;52.786;6.892;2023-10-13T11:43:59;17.90;;;8.18;;
52668;SDS011;59898;52.786;6.892;2023-10-13T11:47:39;18.58;;;6.95;;
52668;SDS011;59898;52.786;6.892;2023-10-13T11:51:19;14.77;;;6.65;;
52668;SDS011;59898;52.786;6.892;2023-10-13T11:54:52;16.25;;;7.03;;
52668;SDS011;59898;52.786;6.892;2023-10-13T11:58:12;16.38;;;7.70;;
52668;SDS011;59898;52.786;6.892;2023-10-13T12:01:35;15.43;;;7.65;;
52668;SDS011;59898;52.786;6.892;2023-10-13T12:05:14;19.45;;;7.10;;
52668;SDS011;59898;52.786;6.892;2023-10-13T12:12:09;22.15;;;7.88;;
52668;SDS011;59898;52.786;6.892;2023-10-13T12:15:30;16.15;;;6.90;;
52668;SDS011;59898;52.786;6.892;2023-10-13T12:18:56;9.40;;;6.63;;
52668;SDS011;59898;52.786;6.892;2023-10-13T12:22:17;18.15;;;7.22;;
52668;SDS011;59898;52.786;6.892;2023-10-13T12:25:45;15.82;;;8.25;;
52668;SDS011;59898;52.786;6.892;2023-10-13T12:29:17;16.20;;;6.97;;
52668;SDS011;59898;52.786;6.892;2023-10-13T12:32:43;17.10;;;7.53;;
52668;SDS011;59898;52.786;6.892;2023-10-13T12:36:13;16.20;;;7.53;;
52668;SDS011;59898;52.786;6.892;2023-10-13T12:39:34;15.77;;;8.38;;
52668;SDS011;59898;52.786;6.892;2023-10-13T12:43:13;16.38;;;6.70;;
52668;SDS011;59898;52.786;6.892;2023-10-13T12:46:53;12.75;;;7.65;;
52668;SDS011;59898;52.786;6.892;2023-10-13T12:50:33;20.65;;;9.02;;
52668;SDS011;59898;52.786;6.892;2023-10-13T12:54:04;11.27;;;7.07;;
52668;SDS011;59898;52.786;6.892;2023-10-13T12:57:26;13.70;;;6.43;;
52668;SDS011;59898;52.786;6.892;2023-10-13T13:00:48;15.88;;;8.57;;
52668;SDS011;59898;52.786;6.892;2023-10-13T13:04:12;15.48;;;7.32;;
52668;SDS011;59898;52.786;6.892;2023-10-13T13:07:43;15.73;;;6.75;;
52668;SDS011;59898;52.786;6.892;2023-10-13T13:11:07;11.90;;;7.30;;
52668;SDS011;59898;52.786;6.892;2023-10-13T13:14:27;13.90;;;7.63;;
52668;SDS011;59898;52.786;6.892;2023-10-13T13:17:51;14.25;;;7.53;;
52668;SDS011;59898;52.786;6.892;2023-10-13T13:21:12;17.17;;;7.93;;
52668;SDS011;59898;52.786;6.892;2023-10-13T13:24:40;11.43;;;6.95;;
52668;SDS011;59898;52.786;6.892;2023-10-13T13:28:04;15.60;;;7.38;;
52668;SDS011;59898;52.786;6.892;2023-10-13T13:31:25;17.63;;;7.00;;
52668;SDS011;59898;52.786;6.892;2023-10-13T13:34:46;22.83;;;7.90;;
52668;SDS011;59898;52.786;6.892;2023-10-13T13:38:14;12.35;;;6.50;;
52668;SDS011;59898;52.786;6.892;2023-10-13T13:41:49;15.63;;;8.10;;
52668;SDS011;59898;52.786;6.892;2023-10-13T13:45:13;13.45;;;7.20;;
52668;SDS011;59898;52.786;6.892;2023-10-13T13:48:49;17.15;;;8.32;;
52668;SDS011;59898;52.786;6.892;2023-10-13T13:52:11;17.37;;;6.97;;
52668;SDS011;59898;52.786;6.892;2023-10-13T13:55:37;15.70;;;7.32;;
52668;SDS011;59898;52.786;6.892;2023-10-13T13:59:00;17.95;;;7.18;;
52668;SDS011;59898;52.786;6.892;2023-10-13T14:02:27;17.35;;;7.50;;
52668;SDS011;59898;52.786;6.892;2023-10-13T14:05:48;18.35;;;8.02;;
52668;SDS011;59898;52.786;6.892;2023-10-13T14:09:10;20.85;;;8.27;;
52668;SDS011;59898;52.786;6.892;2023-10-13T14:12:50;16.70;;;7.53;;
52668;SDS011;59898;52.786;6.892;2023-10-13T14:16:10;16.42;;;8.50;;
52668;SDS011;59898;52.786;6.892;2023-10-13T14:19:36;15.77;;;8.48;;
52668;SDS011;59898;52.786;6.892;2023-10-13T14:23:06;14.25;;;8.25;;
52668;SDS011;59898;52.786;6.892;2023-10-13T14:26:29;20.38;;;9.00;;
52668;SDS011;59898;52.786;6.892;2023-10-13T14:29:51;21.37;;;8.10;;
52668;SDS011;59898;52.786;6.892;2023-10-13T14:33:16;22.17;;;8.63;;
52668;SDS011;59898;52.786;6.892;2023-10-13T14:36:36;16.13;;;8.00;;
52668;SDS011;59898;52.786;6.892;2023-10-13T14:39:57;15.57;;;7.40;;
52668;SDS011;59898;52.786;6.892;2023-10-13T14:43:19;14.93;;;8.88;;
52668;SDS011;59898;52.786;6.892;2023-10-13T14:46:41;15.95;;;7.90;;
52668;SDS011;59898;52.786;6.892;2023-10-13T14:50:02;14.90;;;8.23;;
52668;SDS011;59898;52.786;6.892;2023-10-13T14:53:25;15.00;;;7.88;;
52668;SDS011;59898;52.786;6.892;2023-10-13T14:56:46;16.13;;;8.20;;
52668;SDS011;59898;52.786;6.892;2023-10-13T15:00:07;18.75;;;8.57;;
52668;SDS011;59898;52.786;6.892;2023-10-13T15:03:33;13.95;;;8.40;;
52668;SDS011;59898;52.786;6.892;2023-10-13T15:06:58;17.10;;;9.52;;
52668;SDS011;59898;52.786;6.892;2023-10-13T15:10:21;16.77;;;9.40;;
52668;SDS011;59898;52.786;6.892;2023-10-13T15:17:05;16.38;;;9.13;;
52668;SDS011;59898;52.786;6.892;2023-10-13T15:20:29;17.10;;;9.13;;
52668;SDS011;59898;52.786;6.892;2023-10-13T15:23:49;21.88;;;10.23;;
52668;SDS011;59898;52.786;6.892;2023-10-13T15:27:11;21.38;;;9.93;;
52668;SDS011;59898;52.786;6.892;2023-10-13T15:30:35;17.10;;;9.05;;
52668;SDS011;59898;52.786;6.892;2023-10-13T15:34:05;18.88;;;9.45;;
52668;SDS011;59898;52.786;6.892;2023-10-13T15:37:32;21.88;;;10.05;;
52668;SDS011;59898;52.786;6.892;2023-10-13T15:40:53;14.75;;;8.35;;
52668;SDS011;59898;52.786;6.892;2023-10-13T15:44:14;17.20;;;8.55;;
52668;SDS011;59898;52.786;6.892;2023-10-13T15:47:35;21.70;;;9.38;;
52668;SDS011;59898;52.786;6.892;2023-10-13T15:50:56;20.38;;;9.23;;
52668;SDS011;59898;52.786;6.892;2023-10-13T15:54:16;14.38;;;8.93;;
52668;SDS011;59898;52.786;6.892;2023-10-13T15:57:37;15.95;;;9.05;;
52668;SDS011;59898;52.786;6.892;2023-10-13T16:00:58;20.20;;;9.57;;
52668;SDS011;59898;52.786;6.892;2023-10-13T16:04:19;15.98;;;8.52;;
52668;SDS011;59898;52.786;6.892;2023-10-13T16:07:39;16.60;;;9.25;;
52668;SDS011;59898;52.786;6.892;2023-10-13T16:11:05;12.52;;;7.35;;
52668;SDS011;59898;52.786;6.892;2023-10-13T16:14:33;11.55;;;8.20;;
52668;SDS011;59898;52.786;6.892;2023-10-13T16:17:55;15.43;;;9.20;;
52668;SDS011;59898;52.786;6.892;2023-10-13T16:21:16;15.60;;;7.90;;
52668;SDS011;59898;52.786;6.892;2023-10-13T16:24:36;13.95;;;8.50;;
52668;SDS011;59898;52.786;6.892;2023-10-13T16:27:57;16.90;;;8.98;;
52668;SDS011;59898;52.786;6.892;2023-10-13T16:31:17;18.90;;;9.82;;
52668;SDS011;59898;52.786;6.892;2023-10-13T16:34:38;19.65;;;9.00;;
52668;SDS011;59898;52.786;6.892;2023-10-13T16:37:59;16.98;;;8.60;;
52668;SDS011;59898;52.786;6.892;2023-10-13T16:41:26;13.90;;;8.57;;
52668;SDS011;59898;52.786;6.892;2023-10-13T16:44:49;13.40;;;8.35;;
52668;SDS011;59898;52.786;6.892;2023-10-13T16:48:10;17.77;;;8.57;;
52668;SDS011;59898;52.786;6.892;2023-10-13T16:51:34;17.45;;;9.40;;
52668;SDS011;59898;52.786;6.892;2023-10-13T16:54:55;15.57;;;9.20;;
52668;SDS011;59898;52.786;6.892;2023-10-13T16:58:16;18.60;;;10.43;;
52668;SDS011;59898;52.786;6.892;2023-10-13T17:01:36;15.85;;;8.25;;
52668;SDS011;59898;52.786;6.892;2023-10-13T17:04:57;15.80;;;8.65;;
52668;SDS011;59898;52.786;6.892;2023-10-13T17:08:17;14.25;;;7.90;;
52668;SDS011;59898;52.786;6.892;2023-10-13T17:11:38;13.00;;;7.70;;
52668;SDS011;59898;52.786;6.892;2023-10-13T17:15:03;14.55;;;7.72;;
52668;SDS011;59898;52.786;6.892;2023-10-13T17:18:33;17.33;;;7.28;;
52668;SDS011;59898;52.786;6.892;2023-10-13T17:21:54;13.52;;;6.80;;
52668;SDS011;59898;52.786;6.892;2023-10-13T17:25:15;12.18;;;7.45;;
52668;SDS011;59898;52.786;6.892;2023-10-13T17:28:35;13.07;;;6.15;;
52668;SDS011;59898;52.786;6.892;2023-10-13T17:31:56;17.10;;;7.80;;
52668;SDS011;59898;52.786;6.892;2023-10-13T17:35:18;16.30;;;7.90;;
52668;SDS011;59898;52.786;6.892;2023-10-13T17:38:39;12.73;;;7.20;;
52668;SDS011;59898;52.786;6.892;2023-10-13T17:41:59;15.93;;;8.43;;
52668;SDS011;59898;52.786;6.892;2023-10-13T17:45:21;20.38;;;8.27;;
52668;SDS011;59898;52.786;6.892;2023-10-13T17:48:42;13.10;;;8.18;;
52668;SDS011;59898;52.786;6.892;2023-10-13T17:52:05;21.10;;;8.50;;
52668;SDS011;59898;52.786;6.892;2023-10-13T17:55:27;13.32;;;8.70;;
52668;SDS011;59898;52.786;6.892;2023-10-13T17:58:49;13.30;;;7.32;;
52668;SDS011;59898;52.786;6.892;2023-10-13T18:02:11;18.38;;;9.90;;
52668;SDS011;59898;52.786;6.892;2023-10-13T18:05:31;15.68;;;9.88;;
52668;SDS011;59898;52.786;6.892;2023-10-13T18:08:55;17.67;;;8.70;;
52668;SDS011;59898;52.786;6.892;2023-10-13T18:12:15;27.67;;;9.27;;
52668;SDS011;59898;52.786;6.892;2023-10-13T18:15:39;16.33;;;9.20;;
52668;SDS011;59898;52.786;6.892;2023-10-13T18:18:59;18.25;;;9.30;;
52668;SDS011;59898;52.786;6.892;2023-10-13T18:22:21;15.45;;;8.98;;
52668;SDS011;59898;52.786;6.892;2023-10-13T18:25:44;16.40;;;8.98;;
52668;SDS011;59898;52.786;6.892;2023-10-13T18:29:05;20.67;;;9.80;;
52668;SDS011;59898;52.786;6.892;2023-10-13T18:32:29;17.52;;;9.43;;
52668;SDS011;59898;52.786;6.892;2023-10-13T18:35:49;19.05;;;9.50;;
52668;SDS011;59898;52.786;6.892;2023-10-13T18:39:10;15.70;;;9.73;;
52668;SDS011;59898;52.786;6.892;2023-10-13T18:42:38;13.18;;;8.60;;
52668;SDS011;59898;52.786;6.892;2023-10-13T18:46:02;16.77;;;9.80;;
52668;SDS011;59898;52.786;6.892;2023-10-13T18:49:26;14.73;;;8.40;;
52668;SDS011;59898;52.786;6.892;2023-10-13T18:52:50;15.32;;;9.32;;
52668;SDS011;59898;52.786;6.892;2023-10-13T18:56:12;16.98;;;9.13;;
52668;SDS011;59898;52.786;6.892;2023-10-13T18:59:32;14.30;;;8.10;;
52668;SDS011;59898;52.786;6.892;2023-10-13T19:02:53;15.70;;;9.13;;
52668;SDS011;59898;52.786;6.892;2023-10-13T19:06:14;15.07;;;9.88;;
52668;SDS011;59898;52.786;6.892;2023-10-13T19:09:35;15.57;;;9.50;;
52668;SDS011;59898;52.786;6.892;2023-10-13T19:12:58;15.82;;;9.95;;
52668;SDS011;59898;52.786;6.892;2023-10-13T19:16:20;13.88;;;9.80;;
52668;SDS011;59898;52.786;6.892;2023-10-13T19:19:45;16.42;;;10.32;;
52668;SDS011;59898;52.786;6.892;2023-10-13T19:23:06;16.50;;;9.48;;
52668;SDS011;59898;52.786;6.892;2023-10-13T19:26:27;16.42;;;10.13;;
52668;SDS011;59898;52.786;6.892;2023-10-13T19:29:49;15.90;;;9.93;;
52668;SDS011;59898;52.786;6.892;2023-10-13T19:33:09;18.15;;;9.38;;
52668;SDS011;59898;52.786;6.892;2023-10-13T19:36:30;15.10;;;10.38;;
52668;SDS011;59898;52.786;6.892;2023-10-13T19:39:52;21.33;;;10.87;;
52668;SDS011;59898;52.786;6.892;2023-10-13T19:43:12;18.27;;;11.05;;
52668;SDS011;59898;52.786;6.892;2023-10-13T19:46:33;18.80;;;10.90;;
52668;SDS011;59898;52.786;6.892;2023-10-13T19:49:57;16.33;;;11.13;;
52668;SDS011;59898;52.786;6.892;2023-10-13T19:53:18;15.10;;;9.40;;
52668;SDS011;59898;52.786;6.892;2023-10-13T19:56:39;17.05;;;9.50;;
52668;SDS011;59898;52.786;6.892;2023-10-13T19:59:59;14.60;;;9.32;;
52668;SDS011;59898;52.786;6.892;2023-10-13T20:03:21;14.95;;;8.20;;
52668;SDS011;59898;52.786;6.892;2023-10-13T20:06:43;12.98;;;9.23;;
52668;SDS011;59898;52.786;6.892;2023-10-13T20:10:04;17.63;;;8.52;;
52668;SDS011;59898;52.786;6.892;2023-10-13T20:13:29;11.07;;;7.85;;
52668;SDS011;59898;52.786;6.892;2023-10-13T20:16:50;14.48;;;8.95;;
52668;SDS011;59898;52.786;6.892;2023-10-13T20:20:11;11.18;;;7.78;;
52668;SDS011;59898;52.786;6.892;2023-10-13T20:23:35;14.43;;;8.73;;
52668;SDS011;59898;52.786;6.892;2023-10-13T20:26:56;13.93;;;9.27;;
52668;SDS011;59898;52.786;6.892;2023-10-13T20:30:16;11.02;;;8.40;;
52668;SDS011;59898;52.786;6.892;2023-10-13T20:33:41;15.65;;;10.25;;
52668;SDS011;59898;52.786;6.892;2023-10-13T20:37:04;15.07;;;10.00;;
52668;SDS011;59898;52.786;6.892;2023-10-13T20:40:25;14.77;;;10.18;;